METAR Data
IDs: Format: Raw Decoded Include TAF

Data at: 1832 UTC 07 Dec 2021

KSUA 071747Z 32006KT 10SM CLR 26/14 A3010 RMK CEILOMETER OTS.

KSUA 071732Z 0718/0818 30004KT P6SM FEW020 SCT250
  FM072000 03006KT P6SM FEW025 SCT250
  FM080000 00000KT P6SM FEW030 SCT250
  FM080900 00000KT 6SM BR SCT002 SCT250 AMD NOT SKED